Time;durP1;ratioP1;P1;durP2;ratioP2;P2;SDS_P1;SDS_P2;PMS_P1;PMS_P2;Temp;Humidity;BMP_temperature;BMP_pressure;BME280_temperature;BME280_humidity;BME280_pressure;Samples;Min_cycle;Max_cycle;Signal;HPM_P1;HPM_P2
2022/01/13 00:01:21;;;;;;;31.50;7.15;;;4.00;99.90;;;;;;6282201;22;20027;-78
2022/01/13 00:03:48;;;;;;;34.60;6.20;;;4.00;99.90;;;;;;6281991;22;20000;-77
2022/01/13 00:06:14;;;;;;;28.17;7.15;;;4.00;99.90;;;;;;6309194;22;19996;-78
2022/01/13 00:08:40;;;;;;;26.42;6.05;;;4.00;99.90;;;;;;6309302;22;20419;-78
2022/01/13 00:11:05;;;;;;;30.58;5.78;;;4.00;99.90;;;;;;6310303;22;20010;-77
2022/01/13 00:13:44;;;;;;;28.50;7.70;;;4.00;99.90;;;;;;6281857;22;20500;-74
2022/01/13 00:18:50;;;;;;;29.38;6.10;;;4.00;99.90;;;;;;6320476;22;20011;-74
2022/01/13 00:21:31;;;;;;;22.55;4.53;;;4.00;99.90;;;;;;6308985;22;20003;-74
2022/01/13 00:24:01;;;;;;;39.42;6.80;;;4.00;99.90;;;;;;6281678;22;20075;-74
2022/01/13 00:26:28;;;;;;;32.30;6.82;;;4.00;99.90;;;;;;6309395;22;20003;-74
2022/01/13 00:28:56;;;;;;;24.10;4.93;;;4.00;99.90;;;;;;6309009;22;19999;-74
2022/01/13 00:31:30;;;;;;;22.25;5.03;;;4.00;99.90;;;;;;6309280;22;20003;-74
2022/01/13 00:34:01;;;;;;;39.15;5.97;;;4.10;99.90;;;;;;6281690;22;20339;-74
2022/01/13 00:36:30;;;;;;;31.60;6.03;;;4.00;99.90;;;;;;6308785;22;19995;-74
2022/01/13 00:38:56;;;;;;;27.38;6.60;;;4.00;99.90;;;;;;6309260;22;20004;-74
2022/01/13 00:41:23;;;;;;;25.25;4.60;;;3.90;99.90;;;;;;6308969;22;20008;-74
2022/01/13 00:43:49;;;;;;;20.30;4.88;;;4.00;99.90;;;;;;6309175;22;19999;-74
2022/01/13 00:46:21;;;;;;;32.22;5.35;;;4.00;99.90;;;;;;6308959;22;20006;-75
2022/01/13 00:48:48;;;;;;;20.33;4.90;;;4.00;99.90;;;;;;6309014;22;20067;-75
2022/01/13 00:51:13;;;;;;;22.58;5.00;;;4.00;99.90;;;;;;6310195;22;20000;-75
2022/01/13 00:53:40;;;;;;;21.92;5.53;;;3.90;99.90;;;;;;6309506;22;20014;-75
2022/01/13 00:56:05;;;;;;;25.33;5.53;;;3.90;99.90;;;;;;6308768;22;20442;-75
2022/01/13 00:58:33;;;;;;;24.50;6.88;;;3.90;99.90;;;;;;6281372;22;20007;-75
2022/01/13 01:01:03;;;;;;;25.58;5.78;;;3.90;99.90;;;;;;6281214;22;20034;-75
2022/01/13 01:03:29;;;;;;;26.40;4.72;;;3.90;99.90;;;;;;6281525;22;20006;-75
2022/01/13 01:05:56;;;;;;;31.98;4.38;;;3.90;99.90;;;;;;6309244;22;20004;-75
2022/01/13 01:08:22;;;;;;;34.95;5.60;;;3.90;99.90;;;;;;6308803;22;20439;-75
2022/01/13 01:10:50;;;;;;;33.28;4.90;;;3.90;99.90;;;;;;6308601;22;19999;-75
2022/01/13 01:13:21;;;;;;;29.40;5.43;;;3.90;99.90;;;;;;6281292;22;20027;-75
2022/01/13 01:15:51;;;;;;;22.55;4.50;;;3.90;99.90;;;;;;6308316;22;20008;-75
2022/01/13 01:18:41;;;;;;;33.38;5.80;;;3.90;99.90;;;;;;6310543;22;20030;-79
2022/01/13 01:29:15;;;;;;;26.80;4.72;;;3.90;99.90;;;;;;6309521;22;20078;-79
2022/01/13 01:31:46;;;;;;;34.13;5.07;;;4.00;99.90;;;;;;6280978;22;20052;-79
2022/01/13 01:36:38;;;;;;;28.33;5.75;;;4.00;99.90;;;;;;6307871;22;20057;-79
2022/01/13 01:39:05;;;;;;;27.65;5.65;;;4.00;99.90;;;;;;6308681;22;20437;-79
2022/01/13 01:41:35;;;;;;;26.23;5.30;;;4.00;99.90;;;;;;6280779;22;19999;-79
2022/01/13 01:44:08;;;;;;;27.60;6.00;;;4.00;99.90;;;;;;6280726;22;20027;-78
2022/01/13 01:46:35;;;;;;;28.83;5.18;;;4.10;99.90;;;;;;6280814;22;20007;-79
2022/01/13 01:49:14;;;;;;;29.55;4.65;;;4.00;99.90;;;;;;6308297;22;20006;-79
2022/01/13 01:51:40;;;;;;;;;;;4.00;99.90;;;;;;6281338;22;20370;-79
2022/01/13 01:54:05;;;;;;;32.88;4.85;;;4.10;99.90;;;;;;6308106;22;19899;-79
2022/01/13 01:56:31;;;;;;;21.92;3.90;;;4.10;99.90;;;;;;6308423;22;19991;-79
2022/01/13 01:59:01;;;;;;;36.90;6.65;;;5.70;99.90;;;;;;6280700;22;20010;-79
2022/01/13 02:01:28;;;;;;;30.33;5.28;;;4.10;99.90;;;;;;6307986;22;20019;-79
2022/01/13 02:03:54;;;;;;;51.95;6.75;;;4.10;99.90;;;;;;6280429;22;20076;-79
2022/01/13 02:06:20;;;;;;;51.38;5.72;;;4.10;99.90;;;;;;6280746;22;20032;-79
2022/01/13 02:08:45;;;;;;;47.30;6.05;;;4.10;99.90;;;;;;6308017;22;19999;-79
2022/01/13 02:11:11;;;;;;;28.50;5.85;;;4.20;99.90;;;;;;6280596;22;20010;-80
2022/01/13 02:13:44;;;;;;;41.17;6.10;;;4.20;99.90;;;;;;6307651;22;20003;-79
2022/01/13 02:16:25;;;;;;;39.85;7.00;;;4.10;99.90;;;;;;6280699;22;20066;-80
2022/01/13 02:18:51;;;;;;;46.80;6.80;;;4.10;99.90;;;;;;6307965;22;20003;-80
2022/01/13 02:21:19;;;;;;;45.45;6.15;;;4.20;99.90;;;;;;6280234;22;20026;-79
2022/01/13 02:23:44;;;;;;;29.17;5.60;;;4.10;99.90;;;;;;6308147;22;20003;-79
2022/01/13 02:26:10;;;;;;;48.03;5.43;;;4.10;99.90;;;;;;6308002;22;20326;-80
2022/01/13 02:28:36;;;;;;;44.72;7.13;;;4.10;99.90;;;;;;6280267;22;20005;-80
2022/01/13 02:31:03;;;;;;;29.58;6.30;;;4.10;99.90;;;;;;6280524;22;20003;-79
2022/01/13 02:33:28;;;;;;;41.75;6.35;;;4.10;99.90;;;;;;6280368;22;20428;-78
2022/01/13 02:35:54;;;;;;;26.10;4.85;;;4.10;99.90;;;;;;6308335;22;20139;-79
2022/01/13 02:38:21;;;;;;;82.10;6.95;;;4.10;99.90;;;;;;6280414;22;20343;-79
2022/01/13 02:40:53;;;;;;;38.60;7.03;;;4.10;99.90;;;;;;6280324;22;20022;-79
2022/01/13 02:43:19;;;;;;;42.78;6.82;;;4.10;99.90;;;;;;6307804;22;20000;-79
2022/01/13 02:46:02;;;;;;;45.92;7.50;;;4.00;99.90;;;;;;6280119;22;20333;-79
2022/01/13 02:48:30;;;;;;;39.80;7.05;;;4.10;99.90;;;;;;6308947;22;20066;-79
2022/01/13 02:50:57;;;;;;;53.17;7.13;;;4.10;99.90;;;;;;6308218;22;20008;-80
2022/01/13 02:53:23;;;;;;;69.00;9.60;;;4.10;99.90;;;;;;6280884;22;20003;-80
2022/01/13 02:55:50;;;;;;;50.55;8.25;;;4.00;99.90;;;;;;6307872;22;20003;-80
2022/01/13 02:58:16;;;;;;;51.85;8.02;;;4.00;99.90;;;;;;6307922;22;20442;-80
2022/01/13 03:00:43;;;;;;;47.85;8.02;;;4.10;99.90;;;;;;6280343;22;20119;-80
2022/01/13 03:03:09;;;;;;;53.15;8.40;;;4.10;99.90;;;;;;6307934;22;20006;-78
2022/01/13 03:05:38;;;;;;;60.00;9.85;;;4.10;99.90;;;;;;6307720;22;20483;-78
2022/01/13 03:08:08;;;;;;;51.75;8.45;;;4.10;99.90;;;;;;6307997;22;20327;-78
2022/01/13 03:10:34;;;;;;;75.03;8.57;;;4.10;99.90;;;;;;6308249;22;20003;-78
2022/01/13 03:13:00;;;;;;;70.32;9.55;;;4.20;99.90;;;;;;6307662;22;20006;-79
2022/01/13 03:15:26;;;;;;;52.55;9.52;;;4.20;99.90;;;;;;6307985;22;20423;-78
2022/01/13 03:17:52;;;;;;;63.95;9.50;;;4.10;99.90;;;;;;6280469;22;20010;-78
2022/01/13 03:20:18;;;;;;;57.38;9.43;;;4.10;99.90;;;;;;6280124;22;20038;-79
2022/01/13 03:22:43;;;;;;;61.42;9.60;;;4.10;99.90;;;;;;6280489;22;20084;-78
2022/01/13 03:25:10;;;;;;;46.75;9.65;;;4.10;99.90;;;;;;6308141;22;20352;-78
2022/01/13 03:27:36;;;;;;;65.43;9.20;;;4.50;99.90;;;;;;6307496;22;20398;-78
2022/01/13 03:30:07;;;;;;;53.45;9.13;;;4.20;99.90;;;;;;6280290;22;20004;-78
2022/01/13 03:32:35;;;;;;;54.58;8.07;;;4.20;99.90;;;;;;6307565;22;20060;-78
2022/01/13 03:35:01;;;;;;;74.75;7.78;;;4.20;99.90;;;;;;6307780;22;20443;-78
2022/01/13 03:37:29;;;;;;;60.50;9.55;;;4.20;99.90;;;;;;6307577;22;20027;-78
2022/01/13 03:39:54;;;;;;;48.97;8.43;;;4.20;99.90;;;;;;6308280;22;20371;-78
2022/01/13 03:42:21;;;;;;;44.10;8.52;;;4.10;99.90;;;;;;6282201;22;19999;-78
2022/01/13 03:44:46;;;;;;;49.75;7.78;;;4.10;99.90;;;;;;6309878;22;19999;-78
2022/01/13 03:47:13;;;;;;;63.50;8.57;;;4.10;99.90;;;;;;6309535;22;20079;-78
2022/01/13 03:49:39;;;;;;;67.97;8.18;;;4.20;99.90;;;;;;6309831;22;20423;-79
2022/01/13 03:52:23;;;;;;;56.28;9.43;;;4.20;99.90;;;;;;6309777;22;20000;-78
2022/01/13 03:55:30;;;;;;;70.00;9.05;;;4.20;99.90;;;;;;6309629;22;19999;-78
2022/01/13 03:58:01;;;;;;;51.22;7.13;;;4.20;99.90;;;;;;6309266;22;20007;-78
2022/01/13 04:00:52;;;;;;;53.67;7.43;;;4.20;99.90;;;;;;6281912;22;20082;-78
2022/01/13 04:03:17;;;;;;;73.47;8.50;;;4.20;99.90;;;;;;6282084;22;20089;-78
2022/01/13 04:06:24;;;;;;;49.63;7.22;;;4.20;99.90;;;;;;6282399;22;20045;-78
2022/01/13 04:08:53;;;;;;;52.50;8.68;;;4.30;99.90;;;;;;6282272;22;20006;-78
2022/01/13 04:11:25;;;;;;;52.28;7.35;;;4.30;99.90;;;;;;6309521;22;20381;-78
2022/01/13 04:14:00;;;;;;;69.82;8.07;;;4.20;99.90;;;;;;6309106;22;20450;-78
2022/01/13 04:16:28;;;;;;;66.05;7.30;;;4.30;99.90;;;;;;6309141;22;19999;-78
2022/01/13 04:18:58;;;;;;;47.07;7.40;;;4.30;99.90;;;;;;6309177;22;20000;-78
2022/01/13 04:21:25;;;;;;;53.95;8.23;;;4.20;99.90;;;;;;6309346;22;20003;-78
2022/01/13 04:23:53;;;;;;;58.22;9.23;;;4.20;99.90;;;;;;6281377;22;20431;-78
2022/01/13 04:26:26;;;;;;;41.30;7.97;;;4.20;99.90;;;;;;6309097;22;19999;-78
2022/01/13 04:29:00;;;;;;;41.13;7.15;;;4.20;99.90;;;;;;6309686;22;20063;-78
2022/01/13 04:31:26;;;;;;;50.20;10.15;;;4.20;99.90;;;;;;6281551;22;20040;-78
2022/01/13 04:33:51;;;;;;;41.10;7.60;;;4.30;99.90;;;;;;6281424;22;20003;-78
2022/01/13 04:36:17;;;;;;;46.08;7.95;;;4.30;99.90;;;;;;6281307;22;20049;-78
2022/01/13 04:38:42;;;;;;;56.00;8.65;;;4.30;99.90;;;;;;6281531;22;20052;-78
2022/01/13 04:41:08;;;;;;;52.75;7.57;;;4.30;99.90;;;;;;6308716;22;20003;-77
2022/01/13 04:43:33;;;;;;;61.65;8.23;;;4.30;99.90;;;;;;6309056;22;20476;-77
2022/01/13 04:45:59;;;;;;;45.03;8.98;;;4.30;99.90;;;;;;6308935;22;20049;-78
2022/01/13 04:48:25;;;;;;;53.10;8.32;;;4.30;99.90;;;;;;6308568;22;19999;-78
2022/01/13 04:50:50;;;;;;;61.63;8.75;;;4.30;99.90;;;;;;6281346;22;20450;-78
2022/01/13 04:53:16;;;;;;;48.42;7.43;;;4.30;99.90;;;;;;6281387;22;19999;-78
2022/01/13 04:55:50;;;;;;;52.17;8.43;;;4.30;99.90;;;;;;6308788;22;20124;-78
2022/01/13 04:58:17;;;;;;;67.38;9.23;;;4.20;99.90;;;;;;6308206;22;20017;-78
2022/01/13 05:00:42;;;;;;;46.70;8.63;;;4.20;99.90;;;;;;6308382;22;20003;-78
2022/01/13 05:03:08;;;;;;;56.05;7.55;;;4.30;99.90;;;;;;6281532;22;20018;-78
2022/01/13 05:05:33;;;;;;;51.00;7.43;;;4.30;99.90;;;;;;6309004;22;20049;-78
2022/01/13 05:07:59;;;;;;;45.25;8.05;;;4.30;99.90;;;;;;6308474;22;19999;-78
2022/01/13 05:10:25;;;;;;;34.45;6.25;;;4.30;99.90;;;;;;6281033;22;20007;-79
2022/01/13 05:12:55;;;;;;;46.58;6.43;;;4.30;99.90;;;;;;6281281;22;20457;-78
2022/01/13 05:15:31;;;;;;;63.63;6.63;;;4.30;99.90;;;;;;6308529;22;20003;-78
2022/01/13 05:20:50;;;;;;;31.75;6.22;;;4.30;99.90;;;;;;6313319;22;20007;-78
2022/01/13 05:23:17;;;;;;;41.70;5.47;;;4.30;99.90;;;;;;6308385;22;20000;-78
2022/01/13 05:25:43;;;;;;;38.15;6.57;;;4.30;99.90;;;;;;6280983;22;19999;-78
2022/01/13 05:28:12;;;;;;;50.38;6.68;;;4.30;99.90;;;;;;6281106;22;19995;-78
2022/01/13 05:30:38;;;;;;;54.95;7.90;;;4.30;99.90;;;;;;6308284;22;19999;-78
2022/01/13 05:33:04;;;;;;;52.50;6.40;;;4.30;99.90;;;;;;6308662;22;20011;-78
2022/01/13 05:35:30;;;;;;;34.35;5.15;;;4.30;99.90;;;;;;6280992;22;20017;-78
2022/01/13 05:37:56;;;;;;;49.97;6.93;;;4.40;99.90;;;;;;6308679;22;20003;-79
2022/01/13 05:40:22;;;;;;;54.30;7.07;;;4.40;99.90;;;;;;6281386;22;20441;-78
2022/01/13 05:42:49;;;;;;;32.83;5.93;;;4.40;99.90;;;;;;6308099;22;19996;-78
2022/01/13 05:45:16;;;;;;;43.67;7.47;;;4.40;99.90;;;;;;6308565;22;20427;-78
2022/01/13 05:47:47;;;;;;;29.05;5.15;;;4.40;99.90;;;;;;6308505;22;20000;-78
2022/01/13 05:50:14;;;;;;;66.15;7.18;;;4.40;99.90;;;;;;6280863;22;20350;-78
2022/01/13 05:52:39;;;;;;;25.02;4.10;;;4.40;99.90;;;;;;6280542;22;20014;-78
2022/01/13 05:55:06;;;;;;;43.10;6.05;;;4.30;99.90;;;;;;6308379;22;20331;-79
2022/01/13 05:57:31;;;;;;;39.90;6.68;;;4.40;99.90;;;;;;6281167;22;20014;-78
2022/01/13 05:59:57;;;;;;;57.17;7.15;;;4.30;99.90;;;;;;6308168;22;20430;-77
2022/01/13 06:02:22;;;;;;;43.70;6.70;;;4.30;99.90;;;;;;6307545;22;20007;-78
2022/01/13 06:04:48;;;;;;;40.30;7.35;;;4.30;99.90;;;;;;6308122;22;20006;-78
2022/01/13 06:07:14;;;;;;;34.45;6.45;;;4.30;99.90;;;;;;6307964;22;19996;-78
2022/01/13 06:09:39;;;;;;;51.03;6.63;;;4.90;99.90;;;;;;6308044;22;19999;-78
2022/01/13 06:12:05;;;;;;;36.28;6.68;;;4.40;99.90;;;;;;6308235;22;20032;-78
2022/01/13 06:14:31;;;;;;;31.50;5.75;;;4.30;99.90;;;;;;6280392;22;20005;-79
2022/01/13 06:16:57;;;;;;;53.05;7.63;;;4.40;99.90;;;;;;6307903;22;19999;-78
2022/01/13 06:19:22;;;;;;;37.78;5.70;;;4.30;99.90;;;;;;6280626;22;20047;-78
2022/01/13 06:21:49;;;;;;;35.92;6.75;;;4.30;99.90;;;;;;6308336;22;19995;-76
2022/01/13 06:24:14;;;;;;;39.85;6.90;;;4.40;99.90;;;;;;6308071;22;20053;-77
2022/01/13 06:26:40;;;;;;;52.10;7.55;;;4.30;99.90;;;;;;6308083;22;20370;-76
2022/01/13 06:29:05;;;;;;;51.15;7.65;;;4.40;99.90;;;;;;6280378;22;19999;-77
2022/01/13 06:31:31;;;;;;;72.13;6.75;;;4.40;99.90;;;;;;6308037;22;19999;-77
2022/01/13 06:33:57;;;;;;;74.50;7.78;;;4.40;99.90;;;;;;6307514;22;20071;-77
2022/01/13 06:36:22;;;;;;;110.60;9.07;;;4.40;99.90;;;;;;6308165;22;20009;-76
2022/01/13 06:38:50;;;;;;;77.78;8.38;;;4.40;99.90;;;;;;6280442;22;20081;-76
2022/01/13 06:41:17;;;;;;;37.45;6.60;;;4.40;99.90;;;;;;6307488;22;20003;-76
2022/01/13 06:43:43;;;;;;;32.55;6.57;;;4.50;99.90;;;;;;6280177;22;20090;-75
2022/01/13 06:46:10;;;;;;;34.25;5.65;;;4.50;99.90;;;;;;6307731;22;20378;-77
2022/01/13 06:48:36;;;;;;;34.70;6.82;;;4.60;99.90;;;;;;6280531;22;20023;-77
2022/01/13 06:51:01;;;;;;;30.70;7.05;;;4.50;99.90;;;;;;6307689;22;20343;-76
2022/01/13 06:53:29;;;;;;;37.92;7.25;;;4.50;99.90;;;;;;6307464;22;19999;-76
2022/01/13 06:55:55;;;;;;;38.05;7.88;;;4.50;99.90;;;;;;6280050;22;20007;-76
2022/01/13 06:58:21;;;;;;;55.13;8.30;;;4.50;99.90;;;;;;6307983;22;20346;-77
2022/01/13 07:00:46;;;;;;;46.90;9.02;;;4.50;99.90;;;;;;6307486;22;20003;-77
2022/01/13 07:03:12;;;;;;;49.60;9.23;;;4.60;99.90;;;;;;6307780;22;20446;-76
2022/01/13 07:05:37;;;;;;;36.17;7.60;;;4.50;99.90;;;;;;6307652;22;20326;-75
2022/01/13 07:08:04;;;;;;;51.10;8.10;;;4.50;99.90;;;;;;6280247;22;20010;-76
2022/01/13 07:10:29;;;;;;;42.72;7.43;;;4.50;99.90;;;;;;6307891;22;20014;-76
2022/01/13 07:12:55;;;;;;;48.75;8.10;;;4.50;99.90;;;;;;6280224;22;20007;-76
2022/01/13 07:15:20;;;;;;;44.85;8.98;;;4.40;99.90;;;;;;6308539;22;20307;-76
2022/01/13 07:17:46;;;;;;;43.90;8.73;;;4.40;99.90;;;;;;6281882;22;20095;-76
2022/01/13 07:20:12;;;;;;;41.72;8.07;;;4.40;99.90;;;;;;6309473;22;20056;-76
2022/01/13 07:22:39;;;;;;;44.40;8.73;;;4.40;99.90;;;;;;6310440;22;20319;-76
2022/01/13 07:25:06;;;;;;;47.83;8.18;;;4.40;99.90;;;;;;6309954;22;19995;-76
2022/01/13 07:27:32;;;;;;;33.33;7.45;;;4.40;99.90;;;;;;6282632;22;20008;-76
2022/01/13 07:29:57;;;;;;;45.28;8.57;;;4.40;99.90;;;;;;6282285;22;20003;-76
2022/01/13 07:32:23;;;;;;;59.50;7.88;;;4.40;99.90;;;;;;6309641;22;20007;-77
2022/01/13 07:34:49;;;;;;;37.28;8.02;;;4.40;99.90;;;;;;6310155;22;20300;-77
2022/01/13 07:37:15;;;;;;;49.03;8.88;;;4.40;99.90;;;;;;6283432;22;20315;-77
2022/01/13 07:39:41;;;;;;;48.70;7.78;;;4.40;99.90;;;;;;6309626;22;19999;-77
2022/01/13 07:42:07;;;;;;;37.50;7.88;;;4.40;99.90;;;;;;6309686;22;20010;-77
2022/01/13 07:44:32;;;;;;;42.33;8.38;;;4.40;99.90;;;;;;6309801;22;19995;-77
2022/01/13 07:47:00;;;;;;;43.65;7.35;;;4.40;99.90;;;;;;6309823;22;19999;-77
2022/01/13 07:49:27;;;;;;;43.95;8.48;;;4.40;99.90;;;;;;6282296;22;20019;-77
2022/01/13 07:51:56;;;;;;;35.85;6.90;;;4.40;99.90;;;;;;6309602;22;19991;-77
2022/01/13 07:54:21;;;;;;;;;;;4.40;99.90;;;;;;6310354;22;20045;-76
2022/01/13 07:56:47;;;;;;;49.30;7.18;;;4.50;99.90;;;;;;6282176;22;19898;-76
2022/01/13 07:59:12;;;;;;;38.17;6.50;;;4.50;99.90;;;;;;6309312;22;20014;-76
2022/01/13 08:01:38;;;;;;;31.77;7.20;;;4.50;99.90;;;;;;6282131;22;20003;-76
2022/01/13 08:04:03;;;;;;;25.90;6.82;;;4.50;99.90;;;;;;6310235;22;20358;-76
2022/01/13 08:06:29;;;;;;;39.95;7.78;;;4.50;99.90;;;;;;6309160;22;20383;-76
2022/01/13 08:08:54;;;;;;;39.80;7.90;;;4.50;99.90;;;;;;6309782;22;20003;-77
2022/01/13 08:11:20;;;;;;;32.63;7.90;;;4.50;99.90;;;;;;6282342;22;20078;-76
2022/01/13 08:13:46;;;;;;;34.78;7.47;;;4.50;99.90;;;;;;6309319;22;20007;-76
2022/01/13 08:16:12;;;;;;;39.28;7.28;;;4.40;99.90;;;;;;6309806;22;20074;-76
2022/01/13 08:21:23;;;;;;;35.70;6.97;;;4.40;99.90;;;;;;6310306;22;20149;-75
2022/01/13 08:23:50;;;;;;;46.10;8.82;;;4.40;99.90;;;;;;6309044;22;20003;-75
2022/01/13 08:26:16;;;;;;;42.08;7.00;;;4.40;99.90;;;;;;6309069;22;20000;-74
2022/01/13 08:28:41;;;;;;;45.17;8.00;;;4.50;99.90;;;;;;6309242;22;20025;-74
2022/01/13 08:31:07;;;;;;;39.05;8.10;;;4.50;99.90;;;;;;6308931;22;20014;-73
2022/01/13 08:33:33;;;;;;;26.05;5.50;;;4.50;99.90;;;;;;6308963;22;20082;-73
2022/01/13 08:35:59;;;;;;;36.90;8.05;;;4.50;99.90;;;;;;6308941;22;20010;-73
2022/01/13 08:38:27;;;;;;;37.72;7.95;;;4.50;99.90;;;;;;6281559;22;20003;-73
2022/01/13 08:40:59;;;;;;;37.78;7.93;;;4.50;99.90;;;;;;6308717;22;20007;-73
2022/01/13 08:43:27;;;;;;;27.30;7.25;;;4.50;99.90;;;;;;6281579;22;19996;-73
2022/01/13 08:45:52;;;;;;;43.65;7.97;;;4.50;99.90;;;;;;6308864;22;20000;-74
2022/01/13 08:48:19;;;;;;;44.83;9.57;;;4.50;99.90;;;;;;6281519;22;20006;-76
2022/01/13 08:50:45;;;;;;;34.90;7.00;;;4.50;99.90;;;;;;6308835;22;20007;-77
2022/01/13 08:53:11;;;;;;;31.73;8.23;;;4.50;99.90;;;;;;6309055;22;20075;-76
2022/01/13 08:55:36;;;;;;;40.95;8.85;;;4.60;99.90;;;;;;6281444;22;20010;-75
2022/01/13 08:58:03;;;;;;;42.83;8.70;;;4.50;99.90;;;;;;6281294;22;20068;-76
2022/01/13 09:00:28;;;;;;;34.83;7.55;;;4.60;99.90;;;;;;6309218;22;19999;-76
2022/01/13 09:02:54;;;;;;;31.13;7.45;;;4.50;99.90;;;;;;6308678;22;20022;-75
2022/01/13 09:05:21;;;;;;;45.20;8.32;;;4.50;99.90;;;;;;6281265;22;20022;-75
2022/01/13 09:07:47;;;;;;;41.95;7.43;;;4.60;99.90;;;;;;6308576;22;20022;-75
2022/01/13 09:10:14;;;;;;;33.08;6.57;;;4.50;99.90;;;;;;6281227;22;20086;-76
2022/01/13 09:12:40;;;;;;;44.40;8.43;;;4.60;99.90;;;;;;6281200;22;20006;-76
2022/01/13 09:15:58;;;;;;;43.78;9.00;;;4.60;99.90;;;;;;6308751;22;20330;-76
2022/01/13 09:17:54;;;;;;;53.28;9.20;;;4.60;99.90;;;;;;6292061;22;20015;-76
2022/01/13 09:20:20;;;;;;;48.38;10.52;;;4.60;99.90;;;;;;6308873;22;20427;-75
2022/01/13 09:22:47;;;;;;;52.17;9.35;;;4.60;99.90;;;;;;6281478;22;20003;-76
2022/01/13 09:25:12;;;;;;;50.13;9.45;;;4.60;99.90;;;;;;6281113;22;19999;-75
2022/01/13 09:27:40;;;;;;;39.38;9.38;;;4.60;99.90;;;;;;6308686;22;20074;-76
2022/01/13 09:30:08;;;;;;;54.65;11.25;;;4.70;99.90;;;;;;6308649;22;20097;-75
2022/01/13 09:32:35;;;;;;;37.37;9.87;;;4.70;99.90;;;;;;6308426;22;20006;-75
2022/01/13 09:35:01;;;;;;;116.38;10.00;;;4.70;99.90;;;;;;6308426;22;20070;-74
2022/01/13 09:37:26;;;;;;;57.60;9.52;;;4.70;99.90;;;;;;6280933;22;20038;-75
2022/01/13 09:39:52;;;;;;;69.75;9.73;;;4.70;99.90;;;;;;6280813;22;20169;-75
2022/01/13 09:42:18;;;;;;;55.22;10.50;;;4.80;99.90;;;;;;6308635;22;19995;-75
2022/01/13 09:44:46;;;;;;;69.93;9.45;;;4.90;99.90;;;;;;6280938;22;20331;-75
2022/01/13 09:47:13;;;;;;;47.47;9.00;;;4.90;99.90;;;;;;6308459;22;20360;-74
2022/01/13 09:49:38;;;;;;;37.28;8.07;;;5.00;99.90;;;;;;6280752;22;20042;-74
2022/01/13 09:52:04;;;;;;;39.83;9.43;;;5.00;99.90;;;;;;6308811;22;20022;-75
2022/01/13 09:54:30;;;;;;;42.15;9.63;;;5.10;99.90;;;;;;6308491;22;20434;-75
2022/01/13 09:56:55;;;;;;;38.70;9.80;;;5.00;99.90;;;;;;6280785;22;20086;-75
2022/01/13 09:59:21;;;;;;;52.55;10.10;;;5.10;99.90;;;;;;6308088;22;20017;-75
2022/01/13 10:01:46;;;;;;;48.60;10.07;;;5.20;99.90;;;;;;6280832;22;20003;-75
2022/01/13 10:04:12;;;;;;;57.80;9.85;;;5.20;99.90;;;;;;6281183;22;20090;-75
2022/01/13 10:06:44;;;;;;;47.13;9.63;;;5.20;99.90;;;;;;6308321;22;20002;-75
2022/01/13 10:09:10;;;;;;;35.70;9.10;;;5.30;99.90;;;;;;6308256;22;20373;-75
2022/01/13 10:11:38;;;;;;;37.03;8.70;;;5.30;99.90;;;;;;6280642;22;20003;-76
2022/01/13 10:14:15;;;;;;;37.38;8.52;;;5.30;99.90;;;;;;6308392;22;20003;-76
2022/01/13 10:16:49;;;;;;;39.03;11.23;;;5.30;99.90;;;;;;6280787;22;20469;-75
2022/01/13 10:19:33;;;;;;;55.88;9.60;;;5.40;99.90;;;;;;6308037;22;20017;-75
2022/01/13 10:22:13;;;;;;;50.20;10.27;;;5.40;99.90;;;;;;6308594;22;20327;-75
2022/01/13 10:24:44;;;;;;;41.15;9.25;;;5.40;99.90;;;;;;6308135;22;20057;-75
2022/01/13 10:27:28;;;;;;;46.08;9.30;;;5.40;99.90;;;;;;6280871;22;20036;-75
2022/01/13 10:29:55;;;;;;;40.55;9.32;;;5.40;99.90;;;;;;6308109;22;20003;-75
2022/01/13 10:32:22;;;;;;;44.38;9.07;;;5.40;99.90;;;;;;6308446;22;20010;-75
2022/01/13 10:34:57;;;;;;;36.95;8.80;;;5.30;99.90;;;;;;6308596;22;20419;-75
2022/01/13 10:37:34;;;;;;;33.38;8.32;;;5.40;99.90;;;;;;6281764;22;20423;-75
2022/01/13 10:40:11;;;;;;;44.25;9.98;;;5.40;99.90;;;;;;6280417;22;20003;-75
2022/01/13 10:45:12;;;;;;;48.50;9.50;;;5.50;99.90;;;;;;6308182;22;20007;-75
2022/01/13 10:47:40;;;;;;;46.83;8.95;;;5.30;99.90;;;;;;6307928;22;20073;-75
2022/01/13 10:50:11;;;;;;;37.25;8.13;;;5.40;99.90;;;;;;6280683;22;20086;-75
2022/01/13 10:52:37;;;;;;;49.05;11.48;;;5.40;99.90;;;;;;6280461;22;20003;-75
2022/01/13 10:55:14;;;;;;;44.58;9.45;;;5.50;99.90;;;;;;6307887;22;20035;-76
2022/01/13 10:57:42;;;;;;;44.22;9.75;;;5.50;99.90;;;;;;6307758;22;20003;-75
2022/01/13 11:00:30;;;;;;;45.95;10.68;;;5.40;99.90;;;;;;6280298;22;20003;-75
2022/01/13 11:03:16;;;;;;;41.97;10.73;;;5.40;99.90;;;;;;6280731;22;20034;-75
2022/01/13 11:05:47;;;;;;;39.08;10.25;;;5.50;99.90;;;;;;6307749;22;19995;-75
2022/01/13 11:08:21;;;;;;;46.35;9.65;;;5.50;99.90;;;;;;6307753;22;20000;-75
2022/01/13 11:10:50;;;;;;;47.50;11.13;;;5.50;99.90;;;;;;6307735;22;19999;-75
2022/01/13 11:13:20;;;;;;;38.13;11.80;;;5.50;99.90;;;;;;6307684;22;20014;-75
2022/01/13 11:15:50;;;;;;;53.25;10.65;;;5.60;99.90;;;;;;6307995;22;20377;-75
2022/01/13 11:18:19;;;;;;;43.58;10.90;;;5.60;99.90;;;;;;6307952;22;20014;-75
2022/01/13 11:20:46;;;;;;;38.00;10.95;;;5.70;99.90;;;;;;6280724;22;20003;-75
2022/01/13 11:23:12;;;;;;;42.13;11.25;;;5.70;99.90;;;;;;6307779;22;20021;-75
2022/01/13 11:25:37;;;;;;;47.20;11.23;;;5.80;99.90;;;;;;6280398;22;20030;-75
2022/01/13 11:28:07;;;;;;;50.78;11.30;;;5.70;99.90;;;;;;6308076;22;20330;-75
2022/01/13 11:30:33;;;;;;;45.25;11.68;;;5.80;99.90;;;;;;6308023;22;20010;-75
2022/01/13 11:32:59;;;;;;;44.45;12.18;;;5.90;99.90;;;;;;6280684;22;19999;-75
2022/01/13 11:35:31;;;;;;;45.35;10.68;;;5.90;99.90;;;;;;6308284;22;20377;-75
2022/01/13 11:38:00;;;;;;;43.95;11.90;;;5.90;99.90;;;;;;6281037;22;20013;-75
2022/01/13 11:40:25;;;;;;;;;;;5.90;99.90;;;;;;6280896;22;20434;-75
2022/01/13 11:42:55;;;;;;;49.88;12.15;;;5.90;99.90;;;;;;6308543;22;19899;-75
2022/01/13 11:45:21;;;;;;;49.60;11.95;;;6.00;99.90;;;;;;6308220;22;20427;-74
2022/01/13 11:47:48;;;;;;;42.92;11.98;;;5.90;99.90;;;;;;6308067;22;20331;-75
2022/01/13 11:50:31;;;;;;;36.47;10.55;;;6.00;99.90;;;;;;6280797;22;20029;-75
2022/01/13 11:52:58;;;;;;;35.75;9.15;;;6.00;99.90;;;;;;6280513;22;20077;-75
2022/01/13 11:55:27;;;;;;;49.10;9.93;;;6.00;99.90;;;;;;6280428;22;20056;-74
2022/01/13 11:58:11;;;;;;;48.45;9.50;;;6.00;99.90;;;;;;6308207;22;20003;-74
2022/01/13 12:00:38;;;;;;;41.42;8.38;;;6.10;99.90;;;;;;6307931;22;20010;-75
2022/01/13 12:03:34;;;;;;;44.83;8.45;;;6.00;99.90;;;;;;6309840;22;20094;-75
2022/01/13 12:06:03;;;;;;;38.92;9.88;;;5.90;99.90;;;;;;6309709;22;20003;-74
2022/01/13 12:08:48;;;;;;;40.67;9.90;;;6.00;99.90;;;;;;6309555;22;20079;-74
2022/01/13 12:11:51;;;;;;;44.10;8.77;;;6.00;99.90;;;;;;6282219;22;19999;-75
2022/01/13 12:14:27;;;;;;;37.22;9.07;;;6.00;99.90;;;;;;6282465;22;20427;-76
2022/01/13 12:16:55;;;;;;;40.17;8.18;;;6.10;99.90;;;;;;6309500;22;20041;-76
2022/01/13 12:19:38;;;;;;;34.40;8.20;;;6.00;99.90;;;;;;6309501;22;20006;-76
2022/01/13 12:22:13;;;;;;;43.05;8.48;;;6.10;99.90;;;;;;6281956;22;20008;-75
2022/01/13 12:24:56;;;;;;;40.20;9.98;;;6.00;99.90;;;;;;6309282;22;20048;-75
2022/01/13 12:27:46;;;;;;;35.92;8.15;;;6.00;99.90;;;;;;6309594;22;19999;-74
2022/01/13 12:30:24;;;;;;;40.83;9.75;;;6.10;99.90;;;;;;6293797;22;20007;-74
2022/01/13 12:32:56;;;;;;;29.00;8.52;;;6.10;99.90;;;;;;6309536;22;20000;-74
2022/01/13 12:35:22;;;;;;;43.75;8.90;;;6.10;99.90;;;;;;6309304;22;20005;-74
2022/01/13 12:38:01;;;;;;;32.08;8.75;;;6.00;99.90;;;;;;6309438;22;20074;-74
2022/01/13 12:40:30;;;;;;;35.63;8.65;;;6.00;99.90;;;;;;6308984;22;20086;-74
2022/01/13 12:42:55;;;;;;;33.97;8.35;;;6.00;99.90;;;;;;6309167;22;20006;-74
2022/01/13 12:45:29;;;;;;;35.58;8.10;;;5.90;99.90;;;;;;6309112;22;19999;-74
2022/01/13 12:48:02;;;;;;;38.65;8.90;;;5.90;99.90;;;;;;6282004;22;20030;-74
2022/01/13 12:50:44;;;;;;;34.42;9.50;;;5.90;99.90;;;;;;6308885;22;19999;-74
2022/01/13 12:53:17;;;;;;;37.63;8.27;;;5.90;99.90;;;;;;6309444;22;20033;-74
2022/01/13 12:55:51;;;;;;;32.67;9.88;;;5.90;99.90;;;;;;6309002;22;20004;-74
2022/01/13 12:58:21;;;;;;;30.30;8.20;;;5.80;99.90;;;;;;6308661;22;20007;-74
2022/01/13 13:00:46;;;;;;;34.28;7.75;;;5.80;99.90;;;;;;6308585;22;20010;-74
2022/01/13 13:03:12;;;;;;;27.75;8.13;;;5.80;99.90;;;;;;6308726;22;20023;-74
2022/01/13 13:05:42;;;;;;;26.83;7.68;;;5.70;99.90;;;;;;6308811;22;20094;-74
2022/01/13 13:08:11;;;;;;;31.23;7.88;;;5.70;99.90;;;;;;6309221;22;20003;-73
2022/01/13 13:10:41;;;;;;;25.20;7.15;;;5.60;99.90;;;;;;6281940;22;20053;-74
2022/01/13 13:13:06;;;;;;;33.70;8.88;;;5.70;99.90;;;;;;6308662;22;20414;-74
2022/01/13 13:17:57;;;;;;;29.02;8.77;;;5.70;99.90;;;;;;6309286;22;20011;-74